Time;durP1;ratioP1;P1;durP2;ratioP2;P2;SDS_P1;SDS_P2;PMS_P1;PMS_P2;Temp;Humidity;BMP_temperature;BMP_pressure;BME280_temperature;BME280_humidity;BME280_pressure;Samples;Min_cycle;Max_cycle;Signal;HPM_P1;HPM_P2
2022/07/10 00:01:20;;;;;;;3.40;3.10;;;;;;;15.41;100.00;98830.94;4432626;32;20051;-75
2022/07/10 00:03:46;;;;;;;3.28;2.70;;;;;;;15.57;100.00;98832.41;4432533;32;20061;-74
2022/07/10 00:06:12;;;;;;;4.78;2.85;;;;;;;15.67;100.00;98852.38;4431469;32;20517;-76
2022/07/10 00:08:39;;;;;;;3.20;2.83;;;;;;;15.21;100.00;98802.91;4431720;32;20052;-74
2022/07/10 00:11:06;;;;;;;6.68;3.47;;;;;;;15.25;100.00;98803.97;4417171;32;20932;-75
2022/07/10 00:13:33;;;;;;;3.53;3.15;;;;;;;15.41;100.00;98836.34;4431883;32;20079;-74
2022/07/10 00:16:01;;;;;;;9.75;3.45;;;;;;;15.07;100.00;98799.25;4431430;32;20060;-75
2022/07/10 00:18:28;;;;;;;3.90;3.58;;;;;;;15.12;100.00;98803.81;4420268;32;20076;-75
2022/07/10 00:20:54;;;;;;;3.58;2.72;;;;;;;14.86;100.00;98764.19;4417172;32;20425;-77
2022/07/10 00:23:21;;;;;;;4.78;3.62;;;;;;;15.13;100.00;98806.25;4416638;32;20084;-75
2022/07/10 00:25:48;;;;;;;4.50;3.40;;;;;;;15.19;100.00;98794.25;4416797;32;20068;-76
2022/07/10 00:28:14;;;;;;;3.90;3.30;;;;;;;15.43;100.00;98826.06;4416503;32;20042;-76
2022/07/10 00:30:41;;;;;;;3.42;3.12;;;;;;;15.46;100.00;98824.66;4416687;32;20079;-75
2022/07/10 00:33:08;;;;;;;3.75;3.40;;;;;;;15.14;100.00;98780.75;4403484;32;20042;-76
2022/07/10 00:35:34;;;;;;;3.35;3.05;;;;;;;15.46;100.00;98836.34;4417061;32;20050;-74
2022/07/10 00:38:00;;;;;;;3.55;2.80;;;;;;;15.13;100.00;98789.97;4416372;32;20052;-75
2022/07/10 00:40:27;;;;;;;6.15;3.40;;;;;;;15.36;100.00;98825.56;4416572;32;20091;-74
2022/07/10 00:42:53;;;;;;;7.53;3.25;;;;;;;15.34;100.00;98815.00;4416433;32;20042;-74
2022/07/10 00:45:19;;;;;;;7.87;3.25;;;;;;;15.22;100.00;98799.13;4415210;32;20030;-74
2022/07/10 00:47:46;;;;;;;3.65;3.22;;;;;;;15.22;100.00;98790.97;4403261;32;20034;-74
2022/07/10 00:50:12;;;;;;;5.90;2.92;;;;;;;15.17;100.00;98763.91;4415428;32;20071;-76
2022/07/10 00:52:40;;;;;;;6.78;3.55;;;;;;;15.23;100.00;98773.59;4413454;32;20146;-76
2022/07/10 00:55:09;;;;;;;4.00;3.65;;;;;;;15.46;100.00;98773.09;4403015;32;20043;-74
2022/07/10 00:57:37;;;;;;;5.68;3.47;;;;;;;15.46;100.00;98770.38;4416832;32;20080;-76
2022/07/10 01:00:04;;;;;;;7.45;2.67;;;;;;;15.67;100.00;98812.50;4430068;32;20041;-76
2022/07/10 01:02:30;;;;;;;8.80;3.70;;;;;;;15.69;100.00;98801.34;4431847;32;20079;-75
2022/07/10 01:04:57;;;;;;;3.60;3.30;;;;;;;15.68;100.00;98810.59;4431950;32;20427;-75
2022/07/10 01:07:23;;;;;;;7.50;3.28;;;;;;;15.48;100.00;98769.00;4431504;32;20391;-75
2022/07/10 01:09:50;;;;;;;4.95;3.25;;;;;;;15.46;100.00;98768.50;4417126;32;20166;-75
2022/07/10 01:12:17;;;;;;;15.13;3.37;;;;;;;15.58;100.00;98789.78;4416116;32;20029;-77
2022/07/10 01:14:43;;;;;;;7.20;3.67;;;;;;;15.42;100.00;98764.75;4431376;32;20052;-76
2022/07/10 01:17:11;;;;;;;4.35;3.42;;;;;;;15.69;100.00;98794.00;4431779;32;20431;-76
2022/07/10 01:19:37;;;;;;;4.47;3.55;;;;;;;15.68;100.00;98797.00;4430850;32;20394;-75
2022/07/10 01:22:04;;;;;;;3.97;3.37;;;;;;;15.29;100.00;98749.94;4431435;32;20041;-76
2022/07/10 01:24:31;;;;;;;3.95;3.28;;;;;;;15.09;100.00;98713.00;4430973;32;20067;-76
2022/07/10 01:26:57;;;;;;;3.85;3.37;;;;;;;15.31;100.00;98763.22;4430808;32;20047;-75
2022/07/10 01:29:23;;;;;;;5.93;3.92;;;;;;;15.26;100.00;98767.59;4431023;32;20038;-75
2022/07/10 01:31:50;;;;;;;6.32;3.78;;;;;;;15.57;100.00;98799.84;4408942;32;20038;-77
2022/07/10 01:34:16;;;;;;;4.87;3.42;;;;;;;15.51;100.00;98811.84;4415726;32;20034;-76
2022/07/10 01:36:43;;;;;;;6.37;3.60;;;;;;;15.46;100.00;98798.34;4423674;32;20042;-76
2022/07/10 01:39:09;;;;;;;3.62;3.15;;;;;;;15.41;100.00;98798.38;4423126;32;20079;-75
2022/07/10 01:41:35;;;;;;;7.20;3.12;;;;;;;15.28;100.00;98753.75;4415810;32;20137;-75
2022/07/10 01:44:02;;;;;;;4.87;3.75;;;;;;;15.05;100.00;98760.78;4416446;32;20078;-75
2022/07/10 01:46:29;;;;;;;3.25;2.87;;;;;;;15.40;100.00;98788.63;4403250;32;20384;-75
2022/07/10 01:48:56;;;;;;;7.35;3.25;;;;;;;15.42;100.00;98781.00;4415715;32;20064;-74
2022/07/10 01:51:23;;;;;;;4.40;3.42;;;;;;;15.40;100.00;98783.22;4415410;32;20204;-75
2022/07/10 01:53:49;;;;;;;4.65;3.28;;;;;;;15.05;100.00;98734.47;4415360;32;20030;-75
2022/07/10 01:56:16;;;;;;;5.97;3.42;;;;;;;15.29;100.00;98784.41;4414328;32;20030;-76
2022/07/10 01:58:42;;;;;;;5.75;2.95;;;;;;;15.26;100.00;98780.38;4415239;32;20089;-75
2022/07/10 02:01:10;;;;;;;10.02;3.55;;;;;;;15.13;100.00;98743.87;4415514;32;20076;-75
2022/07/10 02:06:22;;;;;;;5.80;3.35;;;;;;;15.41;100.00;98765.81;4421075;32;20042;-76
2022/07/10 02:08:48;;;;;;;4.15;3.22;;;;;;;15.47;100.00;98764.66;4429634;32;20046;-76
2022/07/10 02:11:15;;;;;;;3.33;2.92;;;;;;;15.15;100.00;98730.03;4416025;32;20030;-76
2022/07/10 02:13:41;;;;;;;3.83;3.25;;;;;;;15.13;100.00;98727.59;4430834;32;20653;-76
2022/07/10 02:16:07;;;;;;;10.05;3.17;;;;;;;15.11;100.00;98737.94;4431070;32;20068;-76
2022/07/10 02:18:34;;;;;;;4.47;3.67;;;;;;;15.00;100.00;98729.09;4416730;32;20042;-76
2022/07/10 02:21:00;;;;;;;4.37;4.00;;;;;;;15.14;100.00;98742.78;4415458;32;20042;-76
2022/07/10 02:23:28;;;;;;;3.92;3.50;;;;;;;15.23;100.00;98773.59;4413567;32;20087;-76
2022/07/10 02:25:54;;;;;;;5.40;3.42;;;;;;;14.96;100.00;98724.53;4414901;32;20046;-76
2022/07/10 02:28:20;;;;;;;6.47;4.22;;;;;;;15.16;100.00;98765.00;4414168;32;20060;-77
2022/07/10 02:30:47;;;;;;;8.93;3.33;;;;;;;14.61;100.00;98693.94;4401131;32;20064;-76
2022/07/10 02:33:13;;;;;;;4.95;3.28;;;;;;;14.91;100.00;98728.09;4415334;32;20514;-76
2022/07/10 02:35:39;;;;;;;6.28;3.78;;;;;;;14.66;100.00;98704.72;4414686;32;20330;-76
2022/07/10 02:38:06;;;;;;;8.73;3.30;;;;;;;15.09;100.00;98769.94;4415010;32;20345;-77
2022/07/10 02:40:32;;;;;;;5.60;3.45;;;;;;;14.70;100.00;98722.06;4414783;32;20156;-76
2022/07/10 02:42:58;;;;;;;5.53;3.33;;;;;;;14.73;100.00;98721.50;4415405;32;20084;-75
2022/07/10 02:45:25;;;;;;;4.93;3.22;;;;;;;14.95;100.00;98767.09;4415315;32;20084;-75
2022/07/10 02:47:51;;;;;;;3.80;3.28;;;;;;;14.88;100.00;98751.16;4414224;32;20060;-77
2022/07/10 02:50:17;;;;;;;5.80;3.12;;;;;;;14.87;100.00;98782.06;4413636;32;20034;-76
2022/07/10 02:52:44;;;;;;;2.92;2.70;;;;;;;14.98;100.00;98776.56;4413751;32;20038;-75
2022/07/10 02:55:10;;;;;;;5.35;2.53;;;;;;;14.74;100.00;98765.66;4414698;32;20072;-75
2022/07/10 02:57:37;;;;;;;4.53;2.42;;;;;;;14.38;100.00;98736.91;4415448;32;20060;-76
2022/07/10 03:00:04;;;;;;;4.45;2.95;;;;;;;14.60;100.00;98774.44;4415208;32;20072;-76
2022/07/10 03:02:30;;;;;;;6.05;3.70;;;;;;;14.92;100.00;98794.78;4415235;32;20043;-76
2022/07/10 03:04:56;;;;;;;6.15;2.85;;;;;;;14.82;100.00;98776.69;4413427;32;20030;-76
2022/07/10 03:07:23;;;;;;;4.85;2.87;;;;;;;14.73;100.00;98758.59;4414982;32;20050;-78
2022/07/10 03:09:49;;;;;;;4.90;3.17;;;;;;;14.60;100.00;98755.47;4413742;32;20046;-77
2022/07/10 03:12:15;;;;;;;6.93;2.85;;;;;;;14.82;100.00;98784.84;4412675;32;20039;-77
2022/07/10 03:14:42;;;;;;;4.72;3.00;;;;;;;14.57;100.00;98739.75;4401212;32;20484;-76
2022/07/10 03:17:08;;;;;;;4.43;3.20;;;;;;;14.63;100.00;98745.94;4401549;32;20034;-76
2022/07/10 03:19:34;;;;;;;3.83;3.00;;;;;;;14.88;100.00;98791.00;4414968;32;20060;-76
2022/07/10 03:22:01;;;;;;;4.22;3.42;;;;;;;14.79;100.00;98785.41;4414776;32;20042;-76
2022/07/10 03:24:27;;;;;;;4.90;3.03;;;;;;;14.76;100.00;98785.97;4400909;32;20334;-77
2022/07/10 03:26:54;;;;;;;3.33;3.03;;;;;;;14.56;100.00;98737.31;4414806;32;20050;-76
2022/07/10 03:29:20;;;;;;;3.97;3.22;;;;;;;14.74;100.00;98771.06;4415068;32;20068;-76
2022/07/10 03:31:46;;;;;;;4.28;2.97;;;;;;;14.66;100.00;98778.72;4400387;32;20034;-77
2022/07/10 03:34:13;;;;;;;7.95;3.40;;;;;;;14.67;100.00;98760.56;4413058;32;20038;-76
2022/07/10 03:36:40;;;;;;;3.83;2.95;;;;;;;14.57;100.00;98734.31;4401085;32;20073;-76
2022/07/10 03:39:06;;;;;;;4.35;3.22;;;;;;;14.68;100.00;98740.50;4414938;32;20082;-76
2022/07/10 03:41:32;;;;;;;5.68;2.80;;;;;;;14.83;100.00;98764.75;4414708;32;20082;-76
2022/07/10 03:43:59;;;;;;;3.10;2.90;;;;;;;14.61;100.00;98721.84;4414396;32;20039;-76
2022/07/10 03:46:25;;;;;;;10.13;3.50;;;;;;;14.89;100.00;98757.41;4401009;32;20072;-76
2022/07/10 03:48:51;;;;;;;4.72;3.12;;;;;;;14.67;100.00;98711.78;4414582;32;20095;-76
2022/07/10 03:51:18;;;;;;;6.35;3.92;;;;;;;14.61;100.00;98702.88;4415592;32;20077;-76
2022/07/10 03:53:45;;;;;;;4.65;2.78;;;;;;;14.99;100.00;98743.72;4414904;32;20060;-77
2022/07/10 03:57:53;;;;;;;3.95;3.15;;;;;;;14.91;100.00;98748.97;4416318;32;20045;-77
2022/07/10 03:58:58;;;;;;;5.53;2.90;;;;;;;14.91;100.00;98732.72;4417600;32;20123;-76
2022/07/10 04:01:24;;;;;;;5.25;3.10;;;;;;;15.04;100.00;98732.03;4417273;32;20034;-76
2022/07/10 04:03:50;;;;;;;3.87;2.47;;;;;;;15.06;100.00;98730.66;4417602;32;20072;-76
2022/07/10 04:06:17;;;;;;;6.55;2.87;;;;;;;14.85;100.00;98692.13;4415406;32;20438;-76
2022/07/10 04:08:43;;;;;;;7.18;2.70;;;;;;;14.70;100.00;98689.53;4415792;32;20031;-76
2022/07/10 04:11:09;;;;;;;6.28;3.12;;;;;;;14.67;100.00;98700.94;4402399;32;20068;-76
2022/07/10 04:13:36;;;;;;;4.03;2.30;;;;;;;14.89;100.00;98736.50;4402503;32;20405;-77
2022/07/10 04:16:03;;;;;;;5.43;2.35;;;;;;;14.63;100.00;98694.47;4403587;32;20085;-76
2022/07/10 04:18:29;;;;;;;3.97;2.90;;;;;;;14.89;100.00;98731.09;4403554;32;20119;-76
2022/07/10 04:20:56;;;;;;;3.22;2.78;;;;;;;14.93;100.00;98730.53;4416916;32;20084;-76
2022/07/10 04:23:22;;;;;;;6.53;2.72;;;;;;;14.71;100.00;98686.53;4415558;32;20092;-76
2022/07/10 04:25:48;;;;;;;3.12;2.80;;;;;;;14.82;100.00;98714.38;4417178;32;20046;-76
2022/07/10 04:28:14;;;;;;;3.37;2.95;;;;;;;14.84;100.00;98741.97;4417121;32;20050;-76
2022/07/10 04:30:41;;;;;;;3.00;2.80;;;;;;;14.91;100.00;98738.13;4417680;32;20181;-76
2022/07/10 04:33:07;;;;;;;3.95;2.95;;;;;;;14.64;100.00;98701.50;4416151;32;20072;-77
2022/07/10 04:35:33;;;;;;;4.30;3.53;;;;;;;14.76;100.00;98698.41;4414528;32;20462;-77
2022/07/10 04:38:00;;;;;;;3.58;3.00;;;;;;;14.88;100.00;98734.88;4417491;32;20034;-75
2022/07/10 04:40:26;;;;;;;5.30;3.10;;;;;;;14.72;100.00;98730.69;4432322;32;20050;-75
2022/07/10 04:42:52;;;;;;;9.40;3.15;;;;;;;14.70;100.00;98732.88;4432208;32;20042;-75
2022/07/10 04:45:19;;;;;;;7.55;3.45;;;;;;;14.60;100.00;98695.84;4432310;32;20061;-76
2022/07/10 04:47:45;;;;;;;4.65;3.08;;;;;;;14.68;100.00;98729.66;4432277;32;20068;-75
2022/07/10 04:50:18;;;;;;;4.12;3.70;;;;;;;14.67;100.00;98725.31;4418910;32;20383;-74
2022/07/10 04:52:45;;;;;;;12.50;3.65;;;;;;;14.85;100.00;98732.78;4429910;32;20067;-77
2022/07/10 04:55:11;;;;;;;6.07;4.07;;;;;;;14.76;100.00;98693.00;4417047;32;20038;-77
2022/07/10 04:57:44;;;;;;;11.98;4.43;;;;;;;15.08;100.00;98727.66;4430724;32;20172;-77
2022/07/10 05:00:11;;;;;;;5.55;3.58;;;;;;;14.94;100.00;98737.56;4431581;32;20064;-76
2022/07/10 05:02:37;;;;;;;5.30;3.65;;;;;;;14.79;100.00;98704.09;4432238;32;20387;-77
2022/07/10 05:05:04;;;;;;;3.67;3.33;;;;;;;14.87;100.00;98695.34;4432049;32;20059;-75
2022/07/10 05:07:30;;;;;;;9.32;3.80;;;;;;;15.07;100.00;98732.25;4420591;32;20446;-75
2022/07/10 05:09:57;;;;;;;7.30;3.20;;;;;;;14.62;100.00;98644.91;4416395;32;20217;-75
2022/07/10 05:12:23;;;;;;;3.62;3.30;;;;;;;15.10;100.00;98736.31;4415000;32;20050;-76
2022/07/10 05:14:50;;;;;;;9.48;3.17;;;;;;;15.01;100.00;98743.44;4414907;32;20368;-75
2022/07/10 05:17:16;;;;;;;4.93;3.28;;;;;;;15.06;100.00;98746.09;4427261;32;20138;-76
2022/07/10 05:19:42;;;;;;;7.28;3.15;;;;;;;14.80;100.00;98689.44;4416889;32;20197;-75
2022/07/10 05:22:09;;;;;;;8.05;3.00;;;;;;;15.19;100.00;98745.44;4416671;32;20066;-76
2022/07/10 05:24:36;;;;;;;6.85;2.72;;;;;;;15.17;100.00;98738.69;4417590;32;20046;-75
2022/07/10 05:27:02;;;;;;;4.05;3.20;;;;;;;15.19;100.00;98734.59;4431958;32;20062;-75
2022/07/10 05:29:29;;;;;;;8.25;2.97;;;;;;;14.92;100.00;98702.63;4416789;32;20056;-76
2022/07/10 05:31:55;;;;;;;7.80;2.58;;;;;;;14.82;100.00;98686.44;4417311;32;20056;-75
2022/07/10 05:34:21;;;;;;;4.47;2.20;;;;;;;15.01;100.00;98727.19;4431753;32;20068;-75
2022/07/10 05:36:48;;;;;;;8.55;2.97;;;;;;;14.82;100.00;98684.56;4430331;32;20426;-74
2022/07/10 05:39:14;;;;;;;5.32;2.47;;;;;;;15.06;100.00;98730.66;4421477;32;20344;-76
2022/07/10 05:41:40;;;;;;;7.30;2.62;;;;;;;14.79;100.00;98697.84;4414628;32;20042;-75
2022/07/10 05:44:07;;;;;;;5.93;2.35;;;;;;;14.95;100.00;98703.94;4416031;32;20038;-75
2022/07/10 05:46:34;;;;;;;8.75;2.92;;;;;;;15.05;100.00;98725.53;4430244;32;20053;-75
2022/07/10 05:49:01;;;;;;;5.53;2.10;;;;;;;15.05;100.00;98717.41;4444039;32;20067;-75
2022/07/10 05:51:27;;;;;;;7.70;3.35;;;;;;;15.16;100.00;98739.78;4432376;32;20030;-74
2022/07/10 05:53:54;;;;;;;14.27;2.50;;;;;;;15.06;100.00;98702.72;4433029;32;20055;-74
2022/07/10 05:56:20;;;;;;;5.10;2.17;;;;;;;14.98;100.00;98673.53;4438229;32;20034;-74
2022/07/10 05:58:46;;;;;;;3.53;2.20;;;;;;;15.47;100.00;98736.75;4446765;32;20102;-75
2022/07/10 06:01:13;;;;;;;6.82;3.22;;;;;;;15.40;100.00;98720.81;4444320;32;20106;-74
2022/07/10 06:03:39;;;;;;;5.35;1.83;;;;;;;15.45;100.00;98734.31;4436943;32;20170;-74
2022/07/10 06:06:06;;;;;;;5.15;1.60;;;;;;;15.23;100.00;98754.59;4422392;32;20064;-74
2022/07/10 06:08:32;;;;;;;4.85;1.50;;;;;;;15.05;100.00;98752.66;4409243;32;20047;-75
2022/07/10 06:10:58;;;;;;;4.68;1.62;;;;;;;14.46;100.00;98676.69;4425514;32;20302;-74
2022/07/10 06:13:24;;;;;;;1.77;1.33;;;;;;;14.97;100.00;98748.63;4431375;32;20409;-75
2022/07/10 06:15:51;;;;;;;4.18;1.40;;;;;;;15.07;100.00;98734.19;4431036;32;20100;-75
2022/07/10 06:18:17;;;;;;;12.95;1.67;;;;;;;14.74;100.00;98701.41;4419892;32;20035;-75
2022/07/10 06:20:44;;;;;;;6.93;1.50;;;;;;;15.02;100.00;98729.59;4415140;32;20072;-75
2022/07/10 06:23:10;;;;;;;2.78;1.15;;;;;;;15.23;100.00;98735.63;4415097;32;20049;-76
2022/07/10 06:25:36;;;;;;;4.20;1.83;;;;;;;15.08;100.00;98684.28;4413908;32;20034;-77
2022/07/10 06:28:03;;;;;;;8.02;2.03;;;;;;;15.42;100.00;98732.19;4415624;32;20387;-76
2022/07/10 06:30:29;;;;;;;3.00;1.10;;;;;;;15.23;100.00;98708.50;4415933;32;20042;-75
2022/07/10 06:32:56;;;;;;;5.78;1.65;;;;;;;15.30;100.00;98715.50;4415402;32;20042;-75
2022/07/10 06:35:22;;;;;;;3.22;1.50;;;;;;;15.14;100.00;98694.00;4401277;32;20461;-74
2022/07/10 06:37:48;;;;;;;5.10;1.20;;;;;;;15.31;100.00;98707.06;4415224;32;20075;-76
2022/07/10 06:40:15;;;;;;;6.05;1.60;;;;;;;14.73;100.00;98686.25;4422945;32;20149;-74
2022/07/10 06:42:42;;;;;;;5.85;1.80;;;;;;;15.04;100.00;98753.72;4428922;32;20038;-74
2022/07/10 06:45:10;;;;;;;11.40;1.33;;;;;;;14.99;100.00;98735.59;4430444;32;20072;-74
2022/07/10 06:50:23;;;;;;;8.48;2.22;;;;;;;14.64;100.00;98701.50;4430814;32;20076;-74
2022/07/10 06:52:49;;;;;;;8.90;1.42;;;;;;;14.71;100.00;98691.16;4429279;32;20075;-78
2022/07/10 06:55:17;;;;;;;11.55;1.77;;;;;;;14.96;100.00;98741.59;4430173;32;20037;-74
2022/07/10 06:57:44;;;;;;;8.27;1.42;;;;;;;15.16;100.00;98740.59;4416576;32;20054;-74
2022/07/10 07:00:11;;;;;;;4.47;1.10;;;;;;;15.12;100.00;98706.19;4430424;32;20173;-75
2022/07/10 07:02:38;;;;;;;8.60;1.00;;;;;;;15.31;100.00;98730.69;4429396;32;20059;-74
2022/07/10 07:05:05;;;;;;;3.22;1.02;;;;;;;15.28;100.00;98737.47;4429188;32;20118;-74
2022/07/10 07:07:32;;;;;;;7.80;1.52;;;;;;;15.40;100.00;98731.66;4423061;32;20050;-75
2022/07/10 07:09:58;;;;;;;7.60;2.05;;;;;;;15.47;100.00;98718.56;4413793;32;20402;-74
2022/07/10 07:12:24;;;;;;;7.12;0.98;;;;;;;15.37;100.00;98718.69;4414453;32;20448;-77
2022/07/10 07:14:51;;;;;;;3.67;1.62;;;;;;;15.39;100.00;98721.91;4414449;32;20038;-74
2022/07/10 07:17:22;;;;;;;4.68;0.93;;;;;;;15.50;100.00;98726.13;4401822;32;20019;-74
2022/07/10 07:25:20;;;;;;;4.12;1.48;;;;;;;15.42;100.00;98737.59;4416576;32;20060;-74
2022/07/10 07:27:46;;;;;;;5.87;2.12;;;;;;;15.45;100.00;98737.03;4416591;32;20038;-73
2022/07/10 07:30:15;;;;;;;12.30;2.10;;;;;;;15.02;100.00;98718.75;4418284;32;20187;-75
2022/07/10 07:32:42;;;;;;;11.77;1.90;;;;;;;14.76;100.00;98736.34;4427221;32;20058;-77
2022/07/10 07:35:10;;;;;;;4.47;1.25;;;;;;;14.68;100.00;98743.22;4433728;32;20313;-77
2022/07/10 07:37:41;;;;;;;8.70;1.60;;;;;;;14.84;100.00;98733.84;4446211;32;20038;-74
2022/07/10 07:40:13;;;;;;;2.50;1.23;;;;;;;14.98;100.00;98716.91;4425480;32;20083;-74
2022/07/10 07:42:41;;;;;;;5.18;1.50;;;;;;;14.82;100.00;98708.94;4417700;32;20026;-74
2022/07/10 07:45:08;;;;;;;7.12;1.95;;;;;;;15.06;100.00;98730.66;4437290;32;20059;-75
2022/07/10 07:47:51;;;;;;;10.02;1.58;;;;;;;15.02;100.00;98715.25;4440256;32;20103;-75
2022/07/10 07:50:21;;;;;;;3.00;1.00;;;;;;;15.10;100.00;98692.94;4411852;32;20420;-76
2022/07/10 07:52:49;;;;;;;10.45;2.53;;;;;;;15.02;100.00;98691.66;4437233;32;20070;-74
2022/07/10 07:55:18;;;;;;;6.22;1.30;;;;;;;15.14;100.00;98702.12;4433608;32;20059;-74
2022/07/10 07:57:45;;;;;;;8.10;1.83;;;;;;;15.38;100.00;98698.56;4437537;32;20099;-73
2022/07/10 08:00:14;;;;;;;6.85;1.30;;;;;;;15.66;100.00;98736.78;4418000;32;20070;-77
2022/07/10 08:02:41;;;;;;;10.32;1.30;;;;;;;15.73;100.00;98734.50;4417294;32;20046;-76
2022/07/10 08:05:09;;;;;;;3.83;1.10;;;;;;;15.87;100.00;98721.88;4416547;32;20025;-75
2022/07/10 08:07:41;;;;;;;2.83;1.10;;;;;;;15.64;100.00;98695.56;4417168;32;20068;-73
2022/07/10 08:10:09;;;;;;;4.00;1.10;;;;;;;15.92;100.00;98751.69;4415383;32;20051;-74
2022/07/10 08:12:35;;;;;;;5.35;1.70;;;;;;;15.94;100.00;98738.63;4420431;32;20026;-75
2022/07/10 08:15:02;;;;;;;2.17;1.40;;;;;;;16.12;100.00;98736.22;4417358;32;20045;-74
2022/07/10 08:17:29;;;;;;;1.50;1.00;;;;;;;16.27;100.00;98735.97;4426533;32;20029;-74
2022/07/10 08:19:55;;;;;;;3.10;0.93;;;;;;;15.99;100.00;98721.47;4411885;32;20031;-74
2022/07/10 08:22:21;;;;;;;5.20;1.33;;;;;;;16.14;100.00;98715.00;4421545;32;20068;-74
2022/07/10 08:24:48;;;;;;;6.00;1.00;;;;;;;16.38;100.00;98733.13;4426740;32;20079;-76
2022/07/10 08:27:14;;;;;;;5.22;1.17;;;;;;;16.23;100.00;98710.53;4406171;32;20073;-77
2022/07/10 08:29:41;;;;;;;5.28;0.70;;;;;;;16.53;100.00;98757.34;4402597;32;20392;-74
2022/07/10 08:32:09;;;;;;;10.30;1.08;;;;;;;16.68;100.00;98754.38;4417091;32;20050;-74
2022/07/10 08:34:36;;;;;;;7.20;1.60;;;;;;;16.52;100.00;98774.75;4421017;32;20391;-74
2022/07/10 08:37:03;;;;;;;5.85;0.95;;;;;;;16.29;100.00;98766.41;4411229;32;20049;-74
2022/07/10 08:39:31;;;;;;;3.62;1.23;;;;;;;15.87;100.00;98708.31;4423670;32;20383;-75
2022/07/10 08:41:58;;;;;;;7.43;1.00;;;;;;;16.39;100.00;98738.25;4407472;32;20027;-74
2022/07/10 08:44:25;;;;;;;3.12;0.98;;;;;;;16.67;100.00;98741.06;4416621;32;20101;-76
2022/07/10 08:46:51;;;;;;;3.00;0.85;;;;;;;16.45;100.00;98719.94;4401900;32;20023;-77
2022/07/10 08:49:23;;;;;;;2.65;1.30;;;;;;;16.48;100.00;98717.47;4416292;32;20340;-75
2022/07/10 08:51:57;;;;;;;;;;;;;;;16.16;100.00;98699.19;4417118;32;20113;-74
2022/07/10 08:54:27;;;;;;;5.72;1.87;;;;;;;16.57;100.00;98765.72;4417546;32;19929;-75
2022/07/10 08:57:02;;;;;;;1.92;0.88;;;;;;;16.21;100.00;98714.63;4417334;32;20083;-74
2022/07/10 08:59:29;;;;;;;1.20;0.60;;;;;;;16.44;100.00;98750.97;4415878;32;20038;-77
2022/07/10 09:01:56;;;;;;;0.80;0.57;;;;;;;16.66;100.00;98747.62;4402208;32;20030;-76
2022/07/10 09:04:25;;;;;;;1.77;0.73;;;;;;;16.63;100.00;98743.59;4420723;32;20045;-77
2022/07/10 09:06:53;;;;;;;0.77;0.77;;;;;;;16.61;100.00;98702.31;4426463;32;20105;-75
2022/07/10 09:09:20;;;;;;;5.55;3.60;;;;;;;16.61;100.00;98756.69;4425909;32;20125;-76
2022/07/10 09:11:46;;;;;;;8.10;0.90;;;;;;;16.69;100.00;98736.97;4426255;32;20140;-76
2022/07/10 09:14:17;;;;;;;3.05;0.90;;;;;;;16.73;100.00;98709.19;4425300;32;20101;-74
2022/07/10 09:16:45;;;;;;;2.80;0.98;;;;;;;16.78;100.00;98755.31;4425875;32;20101;-76
2022/07/10 09:19:17;;;;;;;6.32;1.90;;;;;;;16.76;100.00;98746.66;4417526;32;20368;-77
2022/07/10 09:21:45;;;;;;;2.03;0.68;;;;;;;16.44;100.00;98732.75;4416219;32;20184;-75
2022/07/10 09:24:11;;;;;;;5.72;1.12;;;;;;;16.65;100.00;98746.81;4416937;32;20064;-75
2022/07/10 09:26:39;;;;;;;5.00;0.95;;;;;;;16.17;100.00;98688.03;4416609;32;20030;-75
2022/07/10 09:29:10;;;;;;;3.03;0.80;;;;;;;16.59;100.00;98758.87;4402959;32;20038;-74
2022/07/10 09:31:53;;;;;;;2.37;0.80;;;;;;;16.66;100.00;98770.19;4415017;32;20076;-77
2022/07/10 09:34:40;;;;;;;10.75;1.62;;;;;;;16.53;100.00;98722.03;4416341;32;20058;-74
2022/07/10 09:37:23;;;;;;;2.33;0.90;;;;;;;16.41;100.00;98767.84;4430694;32;20075;-74
2022/07/10 09:40:04;;;;;;;3.08;0.82;;;;;;;15.70;100.00;98737.81;4413336;32;20452;-75
2022/07/10 09:42:39;;;;;;;2.65;0.70;;;;;;;15.76;100.00;98752.94;4414943;32;20026;-75
2022/07/10 09:45:12;;;;;;;2.50;0.98;;;;;;;15.46;100.00;98764.97;4414584;32;20391;-75
2022/07/10 09:47:46;;;;;;;4.18;1.00;;;;;;;15.55;100.00;98769.47;4416140;32;20187;-75
2022/07/10 09:50:22;;;;;;;4.82;1.40;;;;;;;15.60;100.00;98765.87;4416164;32;20038;-75
2022/07/10 09:52:57;;;;;;;4.30;1.05;;;;;;;15.07;100.00;98720.63;4413934;32;20379;-76
2022/07/10 09:55:26;;;;;;;5.18;1.10;;;;;;;15.40;100.00;98735.19;4415584;32;20064;-75
2022/07/10 09:57:55;;;;;;;3.58;0.95;;;;;;;15.25;100.00;98728.03;4416203;32;20065;-75
2022/07/10 10:00:31;;;;;;;2.15;1.30;;;;;;;15.66;100.00;98748.44;4413773;32;20027;-76
2022/07/10 10:02:59;;;;;;;6.18;1.52;;;;;;;15.31;100.00;98708.97;4415848;32;20053;-76
2022/07/10 10:05:34;;;;;;;3.37;1.10;;;;;;;15.80;100.00;98737.72;4416172;32;20351;-75
2022/07/10 10:08:09;;;;;;;6.90;1.58;;;;;;;16.14;100.00;98747.59;4415673;32;20054;-74
2022/07/10 10:10:37;;;;;;;2.65;1.10;;;;;;;16.09;100.00;98740.31;4415537;32;20049;-75
2022/07/10 10:13:10;;;;;;;3.28;1.02;;;;;;;15.88;100.00;98709.94;4414845;32;20038;-77
2022/07/10 10:15:37;;;;;;;3.25;0.80;;;;;;;16.20;100.00;98705.69;4415868;32;20031;-74
2022/07/10 10:18:03;;;;;;;3.33;0.93;;;;;;;16.37;100.00;98740.47;4415388;32;20117;-74
2022/07/10 10:20:38;;;;;;;5.55;0.98;;;;;;;16.29;100.00;98689.50;4414147;32;20030;-74
2022/07/10 10:23:07;;;;;;;3.62;1.15;;;;;;;16.69;100.00;98731.53;4415219;32;20111;-74
2022/07/10 10:25:34;;;;;;;2.95;0.85;;;;;;;16.28;100.00;98687.91;4416041;32;20071;-73
2022/07/10 10:28:03;;;;;;;1.25;0.80;;;;;;;16.77;100.00;98731.94;4424123;32;20345;-75
2022/07/10 10:30:31;;;;;;;7.50;1.10;;;;;;;17.06;100.00;98734.47;4430007;32;20099;-73
2022/07/10 10:32:57;;;;;;;1.23;0.90;;;;;;;17.35;100.00;98731.47;4429916;32;20866;-72
2022/07/10 10:35:46;;;;;;;3.72;0.88;;;;;;;17.54;100.00;98722.41;4431043;32;20038;-73
2022/07/10 10:38:15;;;;;;;3.40;0.93;;;;;;;16.94;100.00;98710.47;4428966;32;20096;-72
2022/07/10 10:40:41;;;;;;;2.35;0.70;;;;;;;16.92;100.00;98701.81;4428834;32;20068;-74
2022/07/10 10:43:23;;;;;;;4.40;0.90;;;;;;;17.30;100.00;98728.84;4426887;32;20322;-73
2022/07/10 10:45:51;;;;;;;3.03;1.98;;;;;;;17.34;100.00;98732.59;4409720;32;20042;-72
2022/07/10 10:48:21;;;;;;;3.97;1.05;;;;;;;17.04;100.00;98733.94;4415254;32;20042;-71
2022/07/10 10:50:53;;;;;;;2.28;0.88;;;;;;;16.96;100.00;98721.88;4415329;32;20191;-72
2022/07/10 10:53:28;;;;;;;8.27;1.05;;;;;;;16.98;100.00;98688.94;4412466;32;20047;-74
2022/07/10 10:56:00;;;;;;;4.93;1.10;;;;;;;16.93;100.00;98724.34;4424367;32;20079;-72
2022/07/10 10:58:35;;;;;;;3.58;0.93;;;;;;;16.81;100.00;98738.41;4440618;32;20169;-72
2022/07/10 11:01:20;;;;;;;7.68;1.00;;;;;;;17.10;100.00;98721.06;4439058;32;20056;-72
2022/07/10 11:04:08;;;;;;;3.50;0.82;;;;;;;17.51;100.00;98717.56;4442051;32;20046;-74
2022/07/10 11:06:49;;;;;;;6.22;0.77;;;;;;;18.13;100.00;98734.25;4438582;32;20087;-72
2022/07/10 11:09:23;;;;;;;2.03;0.60;;;;;;;18.22;100.00;98720.72;4419923;32;20029;-72
2022/07/10 11:12:07;;;;;;;2.37;0.88;;;;;;;17.41;100.00;98724.81;4419262;32;20072;-72
2022/07/10 11:14:36;;;;;;;2.75;1.25;;;;;;;17.61;100.00;98739.12;4418962;32;20100;-72
2022/07/10 11:17:03;;;;;;;6.75;1.30;;;;;;;16.83;100.00;98768.81;4420096;32;20093;-71
2022/07/10 11:19:32;;;;;;;2.33;1.27;;;;;;;15.83;100.00;98780.59;4419563;32;20038;-70
2022/07/10 11:22:06;;;;;;;12.13;1.10;;;;;;;14.99;100.00;98778.19;4404977;32;20056;-72
2022/07/10 11:25:03;;;;;;;9.45;1.15;;;;;;;14.61;100.00;98777.94;4405297;32;20069;-74
2022/07/10 11:27:59;;;;;;;3.00;0.80;;;;;;;14.23;100.00;98783.03;4409695;32;20537;-72
2022/07/10 11:30:27;;;;;;;2.30;1.25;;;;;;;13.80;100.00;98724.78;4419985;32;20403;-72
2022/07/10 11:32:55;;;;;;;2.65;1.65;;;;;;;14.01;100.00;98759.88;4442677;32;20046;-72
2022/07/10 11:35:21;;;;;;;2.97;1.10;;;;;;;14.14;100.00;98753.84;4437308;32;20415;-71
2022/07/10 11:37:52;;;;;;;0.93;0.90;;;;;;;14.27;100.00;98746.19;4417897;32;20055;-70
2022/07/10 11:40:20;;;;;;;2.90;0.90;;;;;;;14.11;100.00;98696.75;4423709;32;20449;-71